sensor_id;sensor_type;location;lat;lon;timestamp;temperature;humidity
30572;DHT22;17348;50.948;10.696;2023-06-19T00:00:33;21.40;94.70
30572;DHT22;17348;50.948;10.696;2023-06-19T00:03:36;21.40;94.30
30572;DHT22;17348;50.948;10.696;2023-06-19T00:06:39;21.40;94.30
30572;DHT22;17348;50.948;10.696;2023-06-19T00:09:42;21.40;94.40
30572;DHT22;17348;50.948;10.696;2023-06-19T00:12:44;21.50;94.60
30572;DHT22;17348;50.948;10.696;2023-06-19T00:15:46;21.50;94.70
30572;DHT22;17348;50.948;10.696;2023-06-19T00:18:49;21.50;94.80
30572;DHT22;17348;50.948;10.696;2023-06-19T00:21:52;21.50;95.00
30572;DHT22;17348;50.948;10.696;2023-06-19T00:24:58;21.50;95.00
30572;DHT22;17348;50.948;10.696;2023-06-19T00:28:00;21.50;95.00
30572;DHT22;17348;50.948;10.696;2023-06-19T00:31:03;21.50;95.10
30572;DHT22;17348;50.948;10.696;2023-06-19T00:34:07;21.50;95.10
30572;DHT22;17348;50.948;10.696;2023-06-19T00:37:11;21.40;95.30
30572;DHT22;17348;50.948;10.696;2023-06-19T00:40:24;21.30;95.30
30572;DHT22;17348;50.948;10.696;2023-06-19T00:43:28;21.30;95.30
30572;DHT22;17348;50.948;10.696;2023-06-19T00:46:31;21.30;95.20
30572;DHT22;17348;50.948;10.696;2023-06-19T00:49:33;21.20;95.20
30572;DHT22;17348;50.948;10.696;2023-06-19T00:52:37;21.20;95.40
30572;DHT22;17348;50.948;10.696;2023-06-19T00:55:40;21.20;95.60
30572;DHT22;17348;50.948;10.696;2023-06-19T00:58:44;21.10;95.60
30572;DHT22;17348;50.948;10.696;2023-06-19T01:01:46;21.10;95.70
30572;DHT22;17348;50.948;10.696;2023-06-19T01:04:49;21.10;96.00
30572;DHT22;17348;50.948;10.696;2023-06-19T01:07:59;21.00;96.10
30572;DHT22;17348;50.948;10.696;2023-06-19T01:11:02;21.00;96.50
30572;DHT22;17348;50.948;10.696;2023-06-19T01:14:08;20.90;96.70
30572;DHT22;17348;50.948;10.696;2023-06-19T01:17:11;20.90;96.80
30572;DHT22;17348;50.948;10.696;2023-06-19T01:20:14;20.90;96.90
30572;DHT22;17348;50.948;10.696;2023-06-19T01:23:18;20.80;97.00
30572;DHT22;17348;50.948;10.696;2023-06-19T01:26:23;20.80;97.20
30572;DHT22;17348;50.948;10.696;2023-06-19T01:29:27;20.80;97.60
30572;DHT22;17348;50.948;10.696;2023-06-19T01:32:33;20.70;97.70
30572;DHT22;17348;50.948;10.696;2023-06-19T01:35:40;20.60;97.60
30572;DHT22;17348;50.948;10.696;2023-06-19T01:38:44;20.60;97.90
30572;DHT22;17348;50.948;10.696;2023-06-19T01:41:47;20.60;98.00
30572;DHT22;17348;50.948;10.696;2023-06-19T01:44:50;20.60;98.20
30572;DHT22;17348;50.948;10.696;2023-06-19T01:47:53;20.50;98.20
30572;DHT22;17348;50.948;10.696;2023-06-19T01:50:55;20.50;98.20
30572;DHT22;17348;50.948;10.696;2023-06-19T01:53:59;20.50;98.70
30572;DHT22;17348;50.948;10.696;2023-06-19T01:57:01;20.50;98.40
30572;DHT22;17348;50.948;10.696;2023-06-19T02:00:05;20.50;98.70
30572;DHT22;17348;50.948;10.696;2023-06-19T02:03:08;20.50;98.40
30572;DHT22;17348;50.948;10.696;2023-06-19T02:06:10;20.50;98.20
30572;DHT22;17348;50.948;10.696;2023-06-19T02:09:14;20.50;98.50
30572;DHT22;17348;50.948;10.696;2023-06-19T02:12:17;20.50;99.10
30572;DHT22;17348;50.948;10.696;2023-06-19T02:15:19;20.50;99.10
30572;DHT22;17348;50.948;10.696;2023-06-19T02:18:24;20.50;99.20
30572;DHT22;17348;50.948;10.696;2023-06-19T02:21:26;20.40;99.20
30572;DHT22;17348;50.948;10.696;2023-06-19T02:24:30;20.40;99.30
30572;DHT22;17348;50.948;10.696;2023-06-19T02:27:33;20.40;99.40
30572;DHT22;17348;50.948;10.696;2023-06-19T02:30:35;20.40;99.50
30572;DHT22;17348;50.948;10.696;2023-06-19T02:33:37;20.50;99.60
30572;DHT22;17348;50.948;10.696;2023-06-19T02:36:39;20.40;99.70
30572;DHT22;17348;50.948;10.696;2023-06-19T02:39:43;20.40;99.70
30572;DHT22;17348;50.948;10.696;2023-06-19T02:42:45;20.40;99.60
30572;DHT22;17348;50.948;10.696;2023-06-19T02:45:48;20.40;99.60
30572;DHT22;17348;50.948;10.696;2023-06-19T02:48:50;20.40;99.50
30572;DHT22;17348;50.948;10.696;2023-06-19T02:51:52;20.40;99.60
30572;DHT22;17348;50.948;10.696;2023-06-19T02:54:56;20.40;99.90
30572;DHT22;17348;50.948;10.696;2023-06-19T02:57:58;20.30;99.90
30572;DHT22;17348;50.948;10.696;2023-06-19T03:01:00;20.30;99.90
30572;DHT22;17348;50.948;10.696;2023-06-19T03:04:03;20.30;99.90
30572;DHT22;17348;50.948;10.696;2023-06-19T03:07:05;20.20;99.90
30572;DHT22;17348;50.948;10.696;2023-06-19T03:10:09;20.20;99.90
30572;DHT22;17348;50.948;10.696;2023-06-19T03:13:13;20.20;99.90
30572;DHT22;17348;50.948;10.696;2023-06-19T03:16:15;20.20;99.90
30572;DHT22;17348;50.948;10.696;2023-06-19T03:19:18;20.20;99.90
30572;DHT22;17348;50.948;10.696;2023-06-19T03:22:20;20.20;99.90
30572;DHT22;17348;50.948;10.696;2023-06-19T03:25:24;20.20;99.90
30572;DHT22;17348;50.948;10.696;2023-06-19T03:28:26;20.20;99.90
30572;DHT22;17348;50.948;10.696;2023-06-19T03:31:29;20.20;99.90
30572;DHT22;17348;50.948;10.696;2023-06-19T03:34:32;20.20;99.90
30572;DHT22;17348;50.948;10.696;2023-06-19T03:37:34;20.20;99.90
30572;DHT22;17348;50.948;10.696;2023-06-19T03:40:38;20.20;99.90
30572;DHT22;17348;50.948;10.696;2023-06-19T03:43:40;20.10;99.90
30572;DHT22;17348;50.948;10.696;2023-06-19T03:46:43;20.10;99.90
30572;DHT22;17348;50.948;10.696;2023-06-19T03:49:45;20.10;99.90
30572;DHT22;17348;50.948;10.696;2023-06-19T03:52:49;20.10;99.90
30572;DHT22;17348;50.948;10.696;2023-06-19T03:55:53;20.10;99.90
30572;DHT22;17348;50.948;10.696;2023-06-19T03:58:55;20.10;99.90
30572;DHT22;17348;50.948;10.696;2023-06-19T04:01:57;20.10;99.90
30572;DHT22;17348;50.948;10.696;2023-06-19T04:05:00;20.10;99.90
30572;DHT22;17348;50.948;10.696;2023-06-19T04:08:02;20.10;99.90
30572;DHT22;17348;50.948;10.696;2023-06-19T04:11:06;20.00;99.90
30572;DHT22;17348;50.948;10.696;2023-06-19T04:14:08;20.00;99.90
30572;DHT22;17348;50.948;10.696;2023-06-19T04:17:11;20.00;99.90
30572;DHT22;17348;50.948;10.696;2023-06-19T04:20:13;20.10;99.90
30572;DHT22;17348;50.948;10.696;2023-06-19T04:23:15;20.10;99.90
30572;DHT22;17348;50.948;10.696;2023-06-19T04:26:19;20.10;99.90
30572;DHT22;17348;50.948;10.696;2023-06-19T04:29:23;20.10;99.90
30572;DHT22;17348;50.948;10.696;2023-06-19T04:32:25;20.20;99.90
30572;DHT22;17348;50.948;10.696;2023-06-19T04:35:27;20.20;99.90
30572;DHT22;17348;50.948;10.696;2023-06-19T04:38:30;20.20;99.90
30572;DHT22;17348;50.948;10.696;2023-06-19T04:41:33;20.30;99.90
30572;DHT22;17348;50.948;10.696;2023-06-19T04:44:39;20.40;99.90
30572;DHT22;17348;50.948;10.696;2023-06-19T04:47:42;20.40;99.90
30572;DHT22;17348;50.948;10.696;2023-06-19T04:50:45;20.50;99.90
30572;DHT22;17348;50.948;10.696;2023-06-19T04:53:47;20.50;99.90
30572;DHT22;17348;50.948;10.696;2023-06-19T04:56:51;20.60;99.90
30572;DHT22;17348;50.948;10.696;2023-06-19T04:59:54;20.70;99.90
30572;DHT22;17348;50.948;10.696;2023-06-19T05:02:56;20.80;99.90
30572;DHT22;17348;50.948;10.696;2023-06-19T05:06:01;20.80;99.90
30572;DHT22;17348;50.948;10.696;2023-06-19T05:09:03;20.90;99.90
30572;DHT22;17348;50.948;10.696;2023-06-19T05:12:09;21.00;99.90
30572;DHT22;17348;50.948;10.696;2023-06-19T05:15:11;21.10;99.90
30572;DHT22;17348;50.948;10.696;2023-06-19T05:18:14;21.20;99.90
30572;DHT22;17348;50.948;10.696;2023-06-19T05:21:16;21.20;99.90
30572;DHT22;17348;50.948;10.696;2023-06-19T05:24:18;21.30;99.90
30572;DHT22;17348;50.948;10.696;2023-06-19T05:27:22;21.30;99.90
30572;DHT22;17348;50.948;10.696;2023-06-19T05:30:24;21.40;99.90
30572;DHT22;17348;50.948;10.696;2023-06-19T05:33:26;21.40;99.90
30572;DHT22;17348;50.948;10.696;2023-06-19T05:36:29;21.50;99.90
30572;DHT22;17348;50.948;10.696;2023-06-19T05:39:31;21.50;99.90
30572;DHT22;17348;50.948;10.696;2023-06-19T05:42:35;21.60;99.90
30572;DHT22;17348;50.948;10.696;2023-06-19T05:45:37;21.70;99.90
30572;DHT22;17348;50.948;10.696;2023-06-19T05:48:40;21.80;99.90
30572;DHT22;17348;50.948;10.696;2023-06-19T05:51:42;21.80;99.90
30572;DHT22;17348;50.948;10.696;2023-06-19T05:54:44;21.90;99.90
30572;DHT22;17348;50.948;10.696;2023-06-19T05:57:48;21.90;99.90
30572;DHT22;17348;50.948;10.696;2023-06-19T06:00:50;21.90;99.90
30572;DHT22;17348;50.948;10.696;2023-06-19T06:03:58;22.00;99.90
30572;DHT22;17348;50.948;10.696;2023-06-19T06:07:02;21.90;99.90
30572;DHT22;17348;50.948;10.696;2023-06-19T06:10:05;22.00;99.90
30572;DHT22;17348;50.948;10.696;2023-06-19T06:13:09;22.00;99.90
30572;DHT22;17348;50.948;10.696;2023-06-19T06:16:11;22.00;99.90
30572;DHT22;17348;50.948;10.696;2023-06-19T06:19:15;22.00;99.90
30572;DHT22;17348;50.948;10.696;2023-06-19T06:22:17;22.00;99.90
30572;DHT22;17348;50.948;10.696;2023-06-19T06:25:20;22.10;99.90
30572;DHT22;17348;50.948;10.696;2023-06-19T06:28:26;22.10;99.90
30572;DHT22;17348;50.948;10.696;2023-06-19T06:31:29;22.20;99.90
30572;DHT22;17348;50.948;10.696;2023-06-19T06:34:31;22.20;99.90
30572;DHT22;17348;50.948;10.696;2023-06-19T06:37:34;22.30;99.90
30572;DHT22;17348;50.948;10.696;2023-06-19T06:40:36;22.40;99.90
30572;DHT22;17348;50.948;10.696;2023-06-19T06:43:41;22.60;99.90
30572;DHT22;17348;50.948;10.696;2023-06-19T06:46:47;22.60;99.90
30572;DHT22;17348;50.948;10.696;2023-06-19T06:49:49;22.70;99.90
30572;DHT22;17348;50.948;10.696;2023-06-19T06:52:52;22.80;99.90
30572;DHT22;17348;50.948;10.696;2023-06-19T06:55:54;22.80;99.90
30572;DHT22;17348;50.948;10.696;2023-06-19T06:58:58;22.90;99.90
30572;DHT22;17348;50.948;10.696;2023-06-19T07:02:00;22.90;99.90
30572;DHT22;17348;50.948;10.696;2023-06-19T07:05:03;23.00;99.90
30572;DHT22;17348;50.948;10.696;2023-06-19T07:08:05;23.00;99.90
30572;DHT22;17348;50.948;10.696;2023-06-19T07:11:08;23.00;99.90
30572;DHT22;17348;50.948;10.696;2023-06-19T07:14:11;23.10;99.90
30572;DHT22;17348;50.948;10.696;2023-06-19T07:17:14;23.10;99.90
30572;DHT22;17348;50.948;10.696;2023-06-19T07:20:16;23.10;99.90
30572;DHT22;17348;50.948;10.696;2023-06-19T07:23:19;23.20;99.90
30572;DHT22;17348;50.948;10.696;2023-06-19T07:26:21;23.20;99.90
30572;DHT22;17348;50.948;10.696;2023-06-19T07:29:25;23.30;99.90
30572;DHT22;17348;50.948;10.696;2023-06-19T07:32:27;23.30;99.90
30572;DHT22;17348;50.948;10.696;2023-06-19T07:35:30;23.30;99.90
30572;DHT22;17348;50.948;10.696;2023-06-19T07:38:32;23.50;99.50
30572;DHT22;17348;50.948;10.696;2023-06-19T07:41:34;23.60;99.70
30572;DHT22;17348;50.948;10.696;2023-06-19T07:44:38;23.70;99.60
30572;DHT22;17348;50.948;10.696;2023-06-19T07:47:40;23.80;99.00
30572;DHT22;17348;50.948;10.696;2023-06-19T07:50:43;23.90;99.00
30572;DHT22;17348;50.948;10.696;2023-06-19T07:53:45;24.10;98.50
30572;DHT22;17348;50.948;10.696;2023-06-19T07:56:47;24.30;98.30
30572;DHT22;17348;50.948;10.696;2023-06-19T07:59:52;24.40;97.80
30572;DHT22;17348;50.948;10.696;2023-06-19T08:02:55;24.50;97.90
30572;DHT22;17348;50.948;10.696;2023-06-19T08:05:57;24.60;97.20
30572;DHT22;17348;50.948;10.696;2023-06-19T08:08:59;24.50;96.40
30572;DHT22;17348;50.948;10.696;2023-06-19T08:12:02;24.60;96.80
30572;DHT22;17348;50.948;10.696;2023-06-19T08:15:08;24.60;96.70
30572;DHT22;17348;50.948;10.696;2023-06-19T08:18:10;24.70;96.70
30572;DHT22;17348;50.948;10.696;2023-06-19T08:21:15;24.70;96.70
30572;DHT22;17348;50.948;10.696;2023-06-19T08:24:18;24.70;96.70
30572;DHT22;17348;50.948;10.696;2023-06-19T08:27:20;24.80;96.70
30572;DHT22;17348;50.948;10.696;2023-06-19T08:30:24;25.00;97.60
30572;DHT22;17348;50.948;10.696;2023-06-19T08:33:30;25.10;96.90
30572;DHT22;17348;50.948;10.696;2023-06-19T08:36:33;25.20;97.20
30572;DHT22;17348;50.948;10.696;2023-06-19T08:39:35;25.30;97.40
30572;DHT22;17348;50.948;10.696;2023-06-19T08:42:39;25.40;96.30
30572;DHT22;17348;50.948;10.696;2023-06-19T08:45:53;25.40;96.40
30572;DHT22;17348;50.948;10.696;2023-06-19T08:48:57;25.40;96.40
30572;DHT22;17348;50.948;10.696;2023-06-19T08:52:01;25.50;96.70
30572;DHT22;17348;50.948;10.696;2023-06-19T08:55:04;25.70;96.90
30572;DHT22;17348;50.948;10.696;2023-06-19T08:58:07;25.80;96.30
30572;DHT22;17348;50.948;10.696;2023-06-19T09:01:16;25.80;96.10
30572;DHT22;17348;50.948;10.696;2023-06-19T09:04:20;26.00;96.60
30572;DHT22;17348;50.948;10.696;2023-06-19T09:07:22;26.10;96.20
30572;DHT22;17348;50.948;10.696;2023-06-19T09:10:24;26.20;96.20
30572;DHT22;17348;50.948;10.696;2023-06-19T09:13:28;26.30;96.10
30572;DHT22;17348;50.948;10.696;2023-06-19T09:16:38;26.40;96.50
30572;DHT22;17348;50.948;10.696;2023-06-19T09:19:47;26.60;96.00
30572;DHT22;17348;50.948;10.696;2023-06-19T09:22:54;26.50;95.90
30572;DHT22;17348;50.948;10.696;2023-06-19T09:25:58;26.50;96.10
30572;DHT22;17348;50.948;10.696;2023-06-19T09:29:10;26.60;96.10
30572;DHT22;17348;50.948;10.696;2023-06-19T09:32:17;26.70;95.60
30572;DHT22;17348;50.948;10.696;2023-06-19T09:35:20;26.80;96.10
30572;DHT22;17348;50.948;10.696;2023-06-19T09:38:27;26.90;95.90
30572;DHT22;17348;50.948;10.696;2023-06-19T09:41:30;27.10;96.20
30572;DHT22;17348;50.948;10.696;2023-06-19T09:44:39;27.40;96.00
30572;DHT22;17348;50.948;10.696;2023-06-19T09:47:45;27.70;95.30
30572;DHT22;17348;50.948;10.696;2023-06-19T09:50:51;27.80;95.20
30572;DHT22;17348;50.948;10.696;2023-06-19T09:53:53;28.00;94.60
30572;DHT22;17348;50.948;10.696;2023-06-19T09:56:57;28.20;94.90
30572;DHT22;17348;50.948;10.696;2023-06-19T10:00:06;28.30;94.80
30572;DHT22;17348;50.948;10.696;2023-06-19T10:03:14;28.30;94.60
30572;DHT22;17348;50.948;10.696;2023-06-19T10:06:17;28.40;94.70
30572;DHT22;17348;50.948;10.696;2023-06-19T10:09:21;28.60;94.60
30572;DHT22;17348;50.948;10.696;2023-06-19T10:12:34;28.80;95.00
30572;DHT22;17348;50.948;10.696;2023-06-19T10:15:40;28.80;94.30
30572;DHT22;17348;50.948;10.696;2023-06-19T10:18:46;29.00;94.40
30572;DHT22;17348;50.948;10.696;2023-06-19T10:21:52;29.20;93.90
30572;DHT22;17348;50.948;10.696;2023-06-19T10:24:54;29.40;94.40
30572;DHT22;17348;50.948;10.696;2023-06-19T10:27:58;29.40;93.90
30572;DHT22;17348;50.948;10.696;2023-06-19T10:31:02;29.40;93.70
30572;DHT22;17348;50.948;10.696;2023-06-19T10:34:06;29.40;94.20
30572;DHT22;17348;50.948;10.696;2023-06-19T10:37:09;29.40;94.20
30572;DHT22;17348;50.948;10.696;2023-06-19T10:40:12;29.40;94.00
30572;DHT22;17348;50.948;10.696;2023-06-19T10:43:20;29.50;94.20
30572;DHT22;17348;50.948;10.696;2023-06-19T10:46:24;29.80;94.20
30572;DHT22;17348;50.948;10.696;2023-06-19T10:49:28;30.10;93.80
30572;DHT22;17348;50.948;10.696;2023-06-19T10:52:30;30.00;94.10
30572;DHT22;17348;50.948;10.696;2023-06-19T10:55:33;29.80;93.80
30572;DHT22;17348;50.948;10.696;2023-06-19T10:58:35;29.90;94.20
30572;DHT22;17348;50.948;10.696;2023-06-19T11:01:39;29.90;94.30
30572;DHT22;17348;50.948;10.696;2023-06-19T11:04:43;30.10;94.30
30572;DHT22;17348;50.948;10.696;2023-06-19T11:07:51;30.20;94.00
30572;DHT22;17348;50.948;10.696;2023-06-19T11:10:53;30.50;94.10
30572;DHT22;17348;50.948;10.696;2023-06-19T11:13:57;30.60;93.80
30572;DHT22;17348;50.948;10.696;2023-06-19T11:16:59;30.80;94.00
30572;DHT22;17348;50.948;10.696;2023-06-19T11:20:09;30.90;93.00
30572;DHT22;17348;50.948;10.696;2023-06-19T11:23:12;30.80;93.00
30572;DHT22;17348;50.948;10.696;2023-06-19T11:26:15;30.70;93.10
30572;DHT22;17348;50.948;10.696;2023-06-19T11:29:18;30.80;93.60
30572;DHT22;17348;50.948;10.696;2023-06-19T11:32:21;30.80;93.60
30572;DHT22;17348;50.948;10.696;2023-06-19T11:35:32;30.70;93.50
30572;DHT22;17348;50.948;10.696;2023-06-19T11:38:37;30.60;93.50
30572;DHT22;17348;50.948;10.696;2023-06-19T11:41:44;30.40;93.80
30572;DHT22;17348;50.948;10.696;2023-06-19T11:44:53;30.20;94.10
30572;DHT22;17348;50.948;10.696;2023-06-19T11:47:56;30.00;94.50
30572;DHT22;17348;50.948;10.696;2023-06-19T11:50:59;30.30;94.40
30572;DHT22;17348;50.948;10.696;2023-06-19T11:54:02;30.60;93.80
30572;DHT22;17348;50.948;10.696;2023-06-19T11:57:05;30.60;93.70
30572;DHT22;17348;50.948;10.696;2023-06-19T12:00:14;30.70;94.20
30572;DHT22;17348;50.948;10.696;2023-06-19T12:03:17;30.60;94.00
30572;DHT22;17348;50.948;10.696;2023-06-19T12:06:21;30.70;93.30
30572;DHT22;17348;50.948;10.696;2023-06-19T12:09:23;31.10;93.10
30572;DHT22;17348;50.948;10.696;2023-06-19T12:12:25;31.40;93.20
30572;DHT22;17348;50.948;10.696;2023-06-19T12:15:28;31.50;92.50
30572;DHT22;17348;50.948;10.696;2023-06-19T12:18:30;31.50;92.70
30572;DHT22;17348;50.948;10.696;2023-06-19T12:21:34;31.50;92.00
30572;DHT22;17348;50.948;10.696;2023-06-19T12:24:36;31.30;92.60
30572;DHT22;17348;50.948;10.696;2023-06-19T12:27:38;31.30;93.10
30572;DHT22;17348;50.948;10.696;2023-06-19T12:30:41;31.40;92.90
30572;DHT22;17348;50.948;10.696;2023-06-19T12:33:44;31.30;93.30
30572;DHT22;17348;50.948;10.696;2023-06-19T12:36:49;31.10;92.80
30572;DHT22;17348;50.948;10.696;2023-06-19T12:39:52;30.90;92.90
30572;DHT22;17348;50.948;10.696;2023-06-19T12:42:54;30.80;93.10
30572;DHT22;17348;50.948;10.696;2023-06-19T12:45:57;31.00;93.20
30572;DHT22;17348;50.948;10.696;2023-06-19T12:49:00;31.10;92.60
30572;DHT22;17348;50.948;10.696;2023-06-19T12:52:04;31.10;92.50
30572;DHT22;17348;50.948;10.696;2023-06-19T12:55:08;31.10;92.60
30572;DHT22;17348;50.948;10.696;2023-06-19T12:58:10;31.00;92.50
30572;DHT22;17348;50.948;10.696;2023-06-19T13:01:12;31.00;92.60
30572;DHT22;17348;50.948;10.696;2023-06-19T13:04:15;30.80;92.10
30572;DHT22;17348;50.948;10.696;2023-06-19T13:07:18;30.70;93.00
30572;DHT22;17348;50.948;10.696;2023-06-19T13:10:21;30.50;92.70
30572;DHT22;17348;50.948;10.696;2023-06-19T13:13:23;30.60;92.30
30572;DHT22;17348;50.948;10.696;2023-06-19T13:16:25;30.50;92.50
30572;DHT22;17348;50.948;10.696;2023-06-19T13:19:28;30.70;93.10
30572;DHT22;17348;50.948;10.696;2023-06-19T13:22:32;30.80;92.60
30572;DHT22;17348;50.948;10.696;2023-06-19T13:25:34;30.80;92.10
30572;DHT22;17348;50.948;10.696;2023-06-19T13:28:36;31.00;92.20
30572;DHT22;17348;50.948;10.696;2023-06-19T13:31:39;31.30;92.20
30572;DHT22;17348;50.948;10.696;2023-06-19T13:34:41;31.40;91.10
30572;DHT22;17348;50.948;10.696;2023-06-19T13:37:45;31.30;91.30
30572;DHT22;17348;50.948;10.696;2023-06-19T13:40:48;31.30;91.70
30572;DHT22;17348;50.948;10.696;2023-06-19T13:43:51;31.30;91.40
30572;DHT22;17348;50.948;10.696;2023-06-19T13:46:54;31.40;91.50
30572;DHT22;17348;50.948;10.696;2023-06-19T13:49:57;31.30;90.40
30572;DHT22;17348;50.948;10.696;2023-06-19T13:53:01;31.40;91.00
30572;DHT22;17348;50.948;10.696;2023-06-19T13:56:03;31.20;90.70
30572;DHT22;17348;50.948;10.696;2023-06-19T13:59:06;31.10;91.20
30572;DHT22;17348;50.948;10.696;2023-06-19T14:02:09;31.00;91.50
30572;DHT22;17348;50.948;10.696;2023-06-19T14:05:12;30.90;91.50
30572;DHT22;17348;50.948;10.696;2023-06-19T14:08:17;30.90;91.40
30572;DHT22;17348;50.948;10.696;2023-06-19T14:11:19;30.70;91.50
30572;DHT22;17348;50.948;10.696;2023-06-19T14:14:22;30.50;91.60
30572;DHT22;17348;50.948;10.696;2023-06-19T14:17:24;30.50;92.00
30572;DHT22;17348;50.948;10.696;2023-06-19T14:20:26;30.60;92.20
30572;DHT22;17348;50.948;10.696;2023-06-19T14:23:30;30.60;92.70
30572;DHT22;17348;50.948;10.696;2023-06-19T14:26:32;30.60;92.40
30572;DHT22;17348;50.948;10.696;2023-06-19T14:29:35;30.60;92.90
30572;DHT22;17348;50.948;10.696;2023-06-19T14:32:37;30.70;92.10
30572;DHT22;17348;50.948;10.696;2023-06-19T14:35:39;30.80;91.70
30572;DHT22;17348;50.948;10.696;2023-06-19T14:38:43;31.10;92.10
30572;DHT22;17348;50.948;10.696;2023-06-19T14:41:45;31.10;91.10
30572;DHT22;17348;50.948;10.696;2023-06-19T14:44:48;31.20;90.40
30572;DHT22;17348;50.948;10.696;2023-06-19T14:47:50;31.20;90.50
30572;DHT22;17348;50.948;10.696;2023-06-19T14:50:53;31.20;91.20
30572;DHT22;17348;50.948;10.696;2023-06-19T14:53:56;31.10;90.60
30572;DHT22;17348;50.948;10.696;2023-06-19T14:56:59;31.00;90.20
30572;DHT22;17348;50.948;10.696;2023-06-19T15:00:01;31.10;90.20
30572;DHT22;17348;50.948;10.696;2023-06-19T15:03:06;31.30;90.80
30572;DHT22;17348;50.948;10.696;2023-06-19T15:06:09;31.30;90.60
30572;DHT22;17348;50.948;10.696;2023-06-19T15:09:12;31.00;90.60
30572;DHT22;17348;50.948;10.696;2023-06-19T15:12:15;30.80;91.20
30572;DHT22;17348;50.948;10.696;2023-06-19T15:15:17;30.70;91.40
30572;DHT22;17348;50.948;10.696;2023-06-19T15:18:19;30.70;91.50
30572;DHT22;17348;50.948;10.696;2023-06-19T15:21:22;30.40;91.60
30572;DHT22;17348;50.948;10.696;2023-06-19T15:24:26;30.30;91.80
30572;DHT22;17348;50.948;10.696;2023-06-19T15:27:28;30.20;91.60
30572;DHT22;17348;50.948;10.696;2023-06-19T15:30:31;30.10;91.60
30572;DHT22;17348;50.948;10.696;2023-06-19T15:33:33;30.10;91.80
30572;DHT22;17348;50.948;10.696;2023-06-19T15:36:35;30.10;91.90
30572;DHT22;17348;50.948;10.696;2023-06-19T15:39:39;30.00;91.70
30572;DHT22;17348;50.948;10.696;2023-06-19T15:42:41;29.90;92.10
30572;DHT22;17348;50.948;10.696;2023-06-19T15:45:44;29.80;92.20
30572;DHT22;17348;50.948;10.696;2023-06-19T15:48:46;29.70;92.10
30572;DHT22;17348;50.948;10.696;2023-06-19T15:51:48;29.60;92.10
30572;DHT22;17348;50.948;10.696;2023-06-19T15:54:52;29.60;92.50
30572;DHT22;17348;50.948;10.696;2023-06-19T15:57:54;29.60;92.60
30572;DHT22;17348;50.948;10.696;2023-06-19T16:00:58;29.60;93.00
30572;DHT22;17348;50.948;10.696;2023-06-19T16:04:00;29.50;92.90
30572;DHT22;17348;50.948;10.696;2023-06-19T16:07:03;29.50;93.40
30572;DHT22;17348;50.948;10.696;2023-06-19T16:10:08;29.50;93.60
30572;DHT22;17348;50.948;10.696;2023-06-19T16:13:10;29.50;93.20
30572;DHT22;17348;50.948;10.696;2023-06-19T16:16:12;29.50;93.20
30572;DHT22;17348;50.948;10.696;2023-06-19T16:19:17;29.60;93.10
30572;DHT22;17348;50.948;10.696;2023-06-19T16:22:19;29.60;93.00
30572;DHT22;17348;50.948;10.696;2023-06-19T16:25:23;29.60;93.20
30572;DHT22;17348;50.948;10.696;2023-06-19T16:28:29;29.50;93.20
30572;DHT22;17348;50.948;10.696;2023-06-19T16:31:31;29.50;93.30
30572;DHT22;17348;50.948;10.696;2023-06-19T16:34:34;29.50;93.20
30572;DHT22;17348;50.948;10.696;2023-06-19T16:37:37;29.40;93.40
30572;DHT22;17348;50.948;10.696;2023-06-19T16:40:41;29.40;93.80
30572;DHT22;17348;50.948;10.696;2023-06-19T16:43:43;29.30;93.30
30572;DHT22;17348;50.948;10.696;2023-06-19T16:46:45;29.40;93.60
30572;DHT22;17348;50.948;10.696;2023-06-19T16:49:48;29.40;93.90
30572;DHT22;17348;50.948;10.696;2023-06-19T16:52:50;29.50;93.80
30572;DHT22;17348;50.948;10.696;2023-06-19T16:55:55;29.50;94.20
30572;DHT22;17348;50.948;10.696;2023-06-19T16:58:59;29.60;94.20
30572;DHT22;17348;50.948;10.696;2023-06-19T17:02:03;29.70;94.00
30572;DHT22;17348;50.948;10.696;2023-06-19T17:05:06;29.60;93.40
30572;DHT22;17348;50.948;10.696;2023-06-19T17:08:08;29.50;93.40
30572;DHT22;17348;50.948;10.696;2023-06-19T17:11:12;29.50;93.30
30572;DHT22;17348;50.948;10.696;2023-06-19T17:14:15;29.50;93.40
30572;DHT22;17348;50.948;10.696;2023-06-19T17:17:17;29.50;93.40
30572;DHT22;17348;50.948;10.696;2023-06-19T17:20:19;29.30;93.20
30572;DHT22;17348;50.948;10.696;2023-06-19T17:23:21;29.20;93.50
30572;DHT22;17348;50.948;10.696;2023-06-19T17:26:25;29.20;93.70
30572;DHT22;17348;50.948;10.696;2023-06-19T17:29:27;29.00;93.70
30572;DHT22;17348;50.948;10.696;2023-06-19T17:32:30;28.90;93.90
30572;DHT22;17348;50.948;10.696;2023-06-19T17:35:34;28.70;93.70
30572;DHT22;17348;50.948;10.696;2023-06-19T17:38:36;28.60;93.70
30572;DHT22;17348;50.948;10.696;2023-06-19T17:41:40;28.50;94.00
30572;DHT22;17348;50.948;10.696;2023-06-19T17:44:42;28.40;94.40
30572;DHT22;17348;50.948;10.696;2023-06-19T17:47:45;28.40;94.70
30572;DHT22;17348;50.948;10.696;2023-06-19T17:50:47;28.40;94.90
30572;DHT22;17348;50.948;10.696;2023-06-19T17:53:49;28.30;95.10
30572;DHT22;17348;50.948;10.696;2023-06-19T17:56:53;28.20;95.00
30572;DHT22;17348;50.948;10.696;2023-06-19T17:59:56;28.10;95.30
30572;DHT22;17348;50.948;10.696;2023-06-19T18:02:58;28.10;95.70
30572;DHT22;17348;50.948;10.696;2023-06-19T18:06:00;28.00;95.30
30572;DHT22;17348;50.948;10.696;2023-06-19T18:09:03;27.90;95.40
30572;DHT22;17348;50.948;10.696;2023-06-19T18:12:07;27.90;95.50
30572;DHT22;17348;50.948;10.696;2023-06-19T18:15:10;27.90;95.50
30572;DHT22;17348;50.948;10.696;2023-06-19T18:18:13;28.00;95.90
30572;DHT22;17348;50.948;10.696;2023-06-19T18:21:15;27.90;96.40
30572;DHT22;17348;50.948;10.696;2023-06-19T18:24:18;27.80;96.60
30572;DHT22;17348;50.948;10.696;2023-06-19T18:27:22;27.70;96.60
30572;DHT22;17348;50.948;10.696;2023-06-19T18:30:24;27.60;97.00
30572;DHT22;17348;50.948;10.696;2023-06-19T18:33:26;27.50;97.10
30572;DHT22;17348;50.948;10.696;2023-06-19T18:36:29;27.40;97.30
30572;DHT22;17348;50.948;10.696;2023-06-19T18:39:31;27.30;97.50
30572;DHT22;17348;50.948;10.696;2023-06-19T18:42:36;27.20;97.80
30572;DHT22;17348;50.948;10.696;2023-06-19T18:45:40;27.20;98.00
30572;DHT22;17348;50.948;10.696;2023-06-19T18:48:43;27.10;98.00
30572;DHT22;17348;50.948;10.696;2023-06-19T18:51:46;27.10;98.20
30572;DHT22;17348;50.948;10.696;2023-06-19T18:54:48;27.00;98.20
30572;DHT22;17348;50.948;10.696;2023-06-19T18:57:52;27.00;98.30